Fort Thomas, Kentucky
Current Conditions -  °F | °C
As of 3:53 PM on Sunday 23 Nov 2014 (Local Time) from KLUK Reporting Station
Light Rain Light Rain  
Wind Chill: 57°   Ceiling: 10000
Heat Index: 57°   Visibility: 10mi
Dew Point: 48°   Wind: 12mph
Humidity: 72%   Direction: 150°SSE
Pressure: 29.65"   Gusts: NA
Location:  39.08°N, 84.45°W
Report Text: KLUK 232053Z 15010KT 10SM -RA FEW060 BKN100 OVC120 14/09 A2965 RMK AO2 RAB17 SLP041 P0000 60000 T01390089 58049
Loading
Personal Weather Stations






























Interactive Weather Map New forecast layout! Learn more

10-Day Weather Forecast

Advertisements
Track Severe Weather on mobile